Time;durP1;ratioP1;P1;durP2;ratioP2;P2;SDS_P1;SDS_P2;PMS_P1;PMS_P2;Temp;Humidity;BMP_temperature;BMP_pressure;BME280_temperature;BME280_humidity;BME280_pressure;Samples;Min_cycle;Max_cycle;Signal;HPM_P1;HPM_P2
2023/12/06 00:01:08;;;;;;;0.40;0.20;;;4.60;36.60;;;;;;5111591;28;20603;-64
2023/12/06 00:03:35;;;;;;;0.30;0.20;;;4.50;44.70;;;;;;5111324;28;20419;-65
2023/12/06 00:06:02;;;;;;;0.70;0.20;;;4.60;72.60;;;;;;5111297;28;20408;-64
2023/12/06 00:08:30;;;;;;;0.30;0.10;;;4.60;48.70;;;;;;5111654;28;20935;-64
2023/12/06 00:10:59;;;;;;;0.50;0.20;;;4.60;33.90;;;;;;5111362;28;20615;-65
2023/12/06 00:13:26;;;;;;;0.40;0.20;;;4.70;27.10;;;;;;5111328;28;20424;-64
2023/12/06 00:15:53;;;;;;;0.40;0.20;;;4.70;21.30;;;;;;5112538;28;20841;-65
2023/12/06 00:18:21;;;;;;;0.40;0.10;;;4.70;20.40;;;;;;5114185;28;20447;-64
2023/12/06 00:20:48;;;;;;;0.30;0.10;;;4.70;21.80;;;;;;5113009;28;20422;-69
2023/12/06 00:23:15;;;;;;;0.70;0.10;;;4.70;19.70;;;;;;5113558;28;20411;-65
2023/12/06 00:25:43;;;;;;;0.40;0.17;;;4.70;12.30;;;;;;5113459;28;20427;-65
2023/12/06 00:28:10;;;;;;;0.40;0.20;;;4.70;12.00;;;;;;5112844;28;20436;-65
2023/12/06 00:30:37;;;;;;;0.40;0.20;;;4.60;5.60;;;;;;5112674;28;20696;-64
2023/12/06 00:33:06;;;;;;;0.50;0.10;;;4.60;4.20;;;;;;5112518;28;20420;-64
2023/12/06 00:35:33;;;;;;;0.30;0.10;;;4.60;7.10;;;;;;5112193;28;20835;-65
2023/12/06 00:38:00;;;;;;;0.30;0.10;;;4.60;8.10;;;;;;5112658;28;20944;-65
2023/12/06 00:40:27;;;;;;;0.30;0.10;;;4.60;5.10;;;;;;5111550;28;20416;-64
2023/12/06 00:42:55;;;;;;;0.40;0.20;;;4.60;5.30;;;;;;5113878;28;20434;-65
2023/12/06 00:45:22;;;;;;;0.40;0.10;;;4.60;6.50;;;;;;5114450;28;20418;-63
2023/12/06 00:47:49;;;;;;;0.40;0.10;;;4.60;4.80;;;;;;5113595;28;20725;-64
2023/12/06 00:50:16;;;;;;;0.40;0.20;;;4.60;2.30;;;;;;5112215;28;21009;-64
2023/12/06 00:52:43;;;;;;;0.40;0.20;;;4.60;10.10;;;;;;5111592;28;20854;-63
2023/12/06 00:55:11;;;;;;;0.40;0.20;;;4.60;8.90;;;;;;5114024;28;20428;-65
2023/12/06 00:57:38;;;;;;;0.40;0.10;;;4.70;20.10;;;;;;5112469;28;20774;-64
2023/12/06 01:00:08;;;;;;;0.50;0.20;;;4.60;10.50;;;;;;5118109;28;20419;-64
2023/12/06 01:02:35;;;;;;;0.40;0.10;;;4.60;10.10;;;;;;5115912;28;20423;-65
2023/12/06 01:05:02;;;;;;;0.30;0.10;;;4.60;19.00;;;;;;5117571;28;20480;-65
2023/12/06 01:07:29;;;;;;;0.30;0.10;;;4.60;14.60;;;;;;5116214;28;20518;-65
2023/12/06 01:09:56;;;;;;;0.40;0.20;;;4.60;16.90;;;;;;5117924;28;20414;-65
2023/12/06 01:12:23;;;;;;;0.30;0.10;;;4.60;16.10;;;;;;5116840;28;20412;-64
2023/12/06 01:14:50;;;;;;;0.40;0.20;;;4.60;15.80;;;;;;5118466;28;20423;-64
2023/12/06 01:17:19;;;;;;;0.40;0.10;;;4.60;21.30;;;;;;5118074;28;20423;-63
2023/12/06 01:19:46;;;;;;;0.30;0.10;;;4.60;31.20;;;;;;5118449;28;20842;-64
2023/12/06 01:22:13;;;;;;;0.30;0.20;;;4.60;40.80;;;;;;5118624;28;20420;-63
2023/12/06 01:24:40;;;;;;;0.40;0.10;;;4.50;47.40;;;;;;5118133;28;20423;-63
2023/12/06 01:27:07;;;;;;;0.30;0.10;;;4.50;63.00;;;;;;5118063;28;20412;-63
2023/12/06 01:29:34;;;;;;;0.30;0.10;;;4.50;82.70;;;;;;5118503;28;20436;-62
2023/12/06 01:32:01;;;;;;;0.30;0.10;;;4.40;76.50;;;;;;5117722;28;20416;-63
2023/12/06 01:34:29;;;;;;;1.00;0.10;;;4.40;97.10;;;;;;5117848;28;20711;-64
2023/12/06 01:36:56;;;;;;;0.50;0.10;;;4.40;99.90;;;;;;5117943;28;20424;-63
2023/12/06 01:39:23;;;;;;;0.40;0.20;;;4.40;99.90;;;;;;5117681;28;20412;-64
2023/12/06 01:41:51;;;;;;;0.30;0.10;;;4.40;99.90;;;;;;5117623;28;20412;-64
2023/12/06 01:44:18;;;;;;;0.40;0.10;;;4.40;99.90;;;;;;5118243;28;20550;-64
2023/12/06 01:46:45;;;;;;;0.80;0.10;;;4.40;99.90;;;;;;5118008;28;20825;-64
2023/12/06 01:49:13;;;;;;;0.50;0.10;;;4.40;99.90;;;;;;5117930;28;20428;-64
2023/12/06 01:51:42;;;;;;;0.30;0.10;;;4.30;99.90;;;;;;5116879;28;20430;-63
2023/12/06 01:54:10;;;;;;;0.40;0.10;;;4.30;99.90;;;;;;5115257;28;20408;-62
2023/12/06 01:56:39;;;;;;;0.30;0.10;;;4.40;99.90;;;;;;5114745;28;20439;-65
2023/12/06 01:59:08;;;;;;;0.40;0.10;;;4.40;99.90;;;;;;5115302;28;20424;-62
2023/12/06 02:01:36;;;;;;;0.30;0.10;;;4.30;99.90;;;;;;5116673;28;20433;-63
2023/12/06 02:04:03;;;;;;;0.30;0.10;;;4.30;99.90;;;;;;5115258;28;20497;-64
2023/12/06 02:06:31;;;;;;;0.30;0.10;;;4.30;99.90;;;;;;5117188;28;20408;-65
2023/12/06 02:09:00;;;;;;;0.60;0.10;;;4.30;99.90;;;;;;5115646;28;20424;-64
2023/12/06 02:11:27;;;;;;;0.60;0.10;;;4.30;99.90;;;;;;5116489;28;20458;-64
2023/12/06 02:13:54;;;;;;;0.60;0.10;;;4.30;99.90;;;;;;5117339;28;20503;-64
2023/12/06 02:16:20;;;;;;;0.30;0.10;;;4.30;99.90;;;;;;5117300;28;20427;-64
2023/12/06 02:18:47;;;;;;;0.30;0.10;;;4.30;99.90;;;;;;5116431;28;20421;-63
2023/12/06 02:21:14;;;;;;;0.30;0.10;;;4.30;99.90;;;;;;5114914;28;20419;-64
2023/12/06 02:23:46;;;;;;;0.40;0.10;;;4.40;99.90;;;;;;5115229;28;20416;-64
2023/12/06 02:26:15;;;;;;;0.30;0.10;;;4.40;99.90;;;;;;5114819;28;20431;-63
2023/12/06 02:28:42;;;;;;;0.30;0.10;;;4.40;99.90;;;;;;5116535;28;20419;-64
2023/12/06 02:31:09;;;;;;;0.30;0.10;;;4.40;99.90;;;;;;5116845;28;20420;-64
2023/12/06 02:33:37;;;;;;;0.30;0.10;;;4.50;99.90;;;;;;5116244;28;20449;-64
2023/12/06 02:36:05;;;;;;;0.30;0.10;;;4.50;99.90;;;;;;5116842;28;20815;-64
2023/12/06 02:38:34;;;;;;;0.30;0.10;;;4.50;99.90;;;;;;5116533;28;20419;-63
2023/12/06 02:41:05;;;;;;;0.30;0.10;;;4.50;96.40;;;;;;5115598;28;20432;-64
2023/12/06 02:43:33;;;;;;;0.40;0.10;;;4.50;99.90;;;;;;5114123;28;20422;-65
2023/12/06 02:46:00;;;;;;;0.30;0.10;;;4.50;95.80;;;;;;5115686;28;20420;-65
2023/12/06 02:48:27;;;;;;;0.30;0.10;;;4.60;99.90;;;;;;5113805;28;20432;-64
2023/12/06 02:50:54;;;;;;;0.30;0.10;;;4.60;79.90;;;;;;5114290;28;20431;-64
2023/12/06 02:53:22;;;;;;;0.30;0.10;;;4.60;86.10;;;;;;5112933;28;20714;-64
2023/12/06 02:55:49;;;;;;;0.30;0.10;;;4.60;76.60;;;;;;5112027;28;20420;-65
2023/12/06 02:58:16;;;;;;;0.30;0.10;;;4.60;57.30;;;;;;5112125;28;20412;-63
2023/12/06 03:00:44;;;;;;;0.30;0.10;;;4.60;65.80;;;;;;5112928;28;20428;-64
2023/12/06 03:03:11;;;;;;;0.30;0.10;;;4.60;57.80;;;;;;5114472;28;20718;-65
2023/12/06 03:05:38;;;;;;;0.30;0.10;;;4.50;55.50;;;;;;5112543;28;20775;-64
2023/12/06 03:08:05;;;;;;;0.30;0.10;;;4.60;67.30;;;;;;5115162;28;20427;-64
2023/12/06 03:10:32;;;;;;;0.30;0.10;;;4.60;66.80;;;;;;5115950;28;20427;-64
2023/12/06 03:13:00;;;;;;;0.30;0.10;;;4.60;48.10;;;;;;5116074;28;20416;-64
2023/12/06 03:15:27;;;;;;;0.30;0.10;;;4.60;41.40;;;;;;5116171;28;20777;-64
2023/12/06 03:17:55;;;;;;;0.35;0.10;;;4.60;41.60;;;;;;5116120;28;20422;-65
2023/12/06 03:20:22;;;;;;;0.30;0.10;;;4.60;38.10;;;;;;5114650;28;20427;-64
2023/12/06 03:22:49;;;;;;;0.30;0.10;;;4.60;36.40;;;;;;5115195;28;20420;-64
2023/12/06 03:25:16;;;;;;;0.30;0.10;;;4.60;43.90;;;;;;5115924;28;20420;-64
2023/12/06 03:27:44;;;;;;;0.60;0.10;;;4.60;31.70;;;;;;5113719;28;20427;-64
2023/12/06 03:30:11;;;;;;;0.30;0.10;;;4.60;27.30;;;;;;5113519;28;20704;-64
2023/12/06 03:32:38;;;;;;;0.30;0.10;;;4.60;32.60;;;;;;5113872;28;20416;-64
2023/12/06 03:35:07;;;;;;;0.30;0.10;;;4.50;33.80;;;;;;5114862;28;20416;-64
2023/12/06 03:37:34;;;;;;;0.30;0.10;;;4.50;39.70;;;;;;5115831;28;20427;-64
2023/12/06 03:40:01;;;;;;;0.30;0.10;;;4.50;41.30;;;;;;5115832;28;20418;-64
2023/12/06 03:42:29;;;;;;;0.30;0.10;;;4.60;33.60;;;;;;5114939;28;20416;-64
2023/12/06 03:44:56;;;;;;;0.30;0.10;;;4.60;27.90;;;;;;5112938;28;20416;-63
2023/12/06 03:47:23;;;;;;;0.30;0.10;;;4.70;28.60;;;;;;5113342;28;20420;-64
2023/12/06 03:49:50;;;;;;;0.30;0.10;;;4.60;10.20;;;;;;5113307;28;20425;-64
2023/12/06 03:52:18;;;;;;;0.30;0.10;;;4.70;10.80;;;;;;5112526;28;20770;-63
2023/12/06 03:54:46;;;;;;;0.30;0.10;;;4.80;2.30;;;;;;5112671;28;20439;-64
2023/12/06 03:57:13;;;;;;;0.30;0.10;;;4.70;2.40;;;;;;5112728;28;20511;-64
2023/12/06 03:59:40;;;;;;;0.30;0.10;;;4.70;1.00;;;;;;5113036;28;20888;-63
2023/12/06 04:02:08;;;;;;;0.30;0.10;;;4.80;1.00;;;;;;5114244;28;20522;-64
2023/12/06 04:04:35;;;;;;;0.30;0.10;;;4.70;1.00;;;;;;5114723;28;21026;-64
2023/12/06 04:07:02;;;;;;;0.30;0.10;;;4.80;1.00;;;;;;5115271;28;20423;-64
2023/12/06 04:09:31;;;;;;;0.30;0.10;;;4.80;1.00;;;;;;5114227;28;20435;-64
2023/12/06 04:11:58;;;;;;;0.30;0.10;;;4.80;1.00;;;;;;5112132;28;20533;-63
2023/12/06 04:14:25;;;;;;;0.30;0.10;;;4.80;1.00;;;;;;5111284;28;20842;-65
2023/12/06 04:16:52;;;;;;;0.30;0.10;;;4.80;1.00;;;;;;5114757;28;20851;-64
2023/12/06 04:19:19;;;;;;;0.40;0.10;;;4.80;1.00;;;;;;5113417;28;20515;-64
2023/12/06 04:21:46;;;;;;;0.30;0.10;;;4.90;1.00;;;;;;5111543;28;20416;-64
2023/12/06 04:24:13;;;;;;;0.30;0.10;;;4.80;1.00;;;;;;5113640;28;20416;-64
2023/12/06 04:26:42;;;;;;;1.20;0.10;;;4.90;1.00;;;;;;5114545;28;20424;-63
2023/12/06 04:29:09;;;;;;;0.30;0.10;;;4.90;1.00;;;;;;5111137;28;20435;-63
2023/12/06 04:31:36;;;;;;;0.30;0.10;;;4.80;1.00;;;;;;5111274;28;20417;-63
2023/12/06 04:34:03;;;;;;;0.30;0.10;;;4.90;1.00;;;;;;5112461;28;20608;-64
2023/12/06 04:36:30;;;;;;;0.30;0.10;;;4.90;1.00;;;;;;5111896;28;20412;-64
2023/12/06 04:38:58;;;;;;;0.30;0.10;;;4.90;1.00;;;;;;5112777;28;20415;-63
2023/12/06 04:41:26;;;;;;;0.30;0.10;;;4.80;1.00;;;;;;5111448;28;20422;-63
2023/12/06 04:43:54;;;;;;;0.30;0.10;;;4.80;1.00;;;;;;5113829;28;20944;-64
2023/12/06 04:46:21;;;;;;;0.30;0.10;;;4.80;1.00;;;;;;5111645;28;20423;-64
2023/12/06 04:48:48;;;;;;;0.30;0.10;;;4.90;1.00;;;;;;5110944;28;20437;-64
2023/12/06 04:51:16;;;;;;;1.00;0.10;;;4.90;1.00;;;;;;5110880;28;20420;-64
2023/12/06 04:53:43;;;;;;;0.50;0.10;;;4.80;1.00;;;;;;5110820;28;20420;-64
2023/12/06 04:56:12;;;;;;;0.50;0.10;;;4.80;1.00;;;;;;5112432;28;20847;-64
2023/12/06 04:58:39;;;;;;;0.30;0.10;;;4.70;1.00;;;;;;5111790;28;20424;-64
2023/12/06 05:01:08;;;;;;;0.38;0.10;;;4.80;1.00;;;;;;5112618;28;20439;-64
2023/12/06 05:03:35;;;;;;;0.30;0.10;;;4.80;1.00;;;;;;5111406;28;20506;-64
2023/12/06 05:06:03;;;;;;;0.30;0.10;;;4.80;1.00;;;;;;5111949;28;20408;-64
2023/12/06 05:08:30;;;;;;;0.30;0.10;;;4.80;1.00;;;;;;5112138;28;20481;-64
2023/12/06 05:10:57;;;;;;;0.60;0.10;;;4.80;1.00;;;;;;5111776;28;20422;-64
2023/12/06 05:13:24;;;;;;;0.30;0.10;;;4.70;1.00;;;;;;5111796;28;20420;-64
2023/12/06 05:15:51;;;;;;;0.30;0.10;;;4.70;1.00;;;;;;5111745;28;20411;-64
2023/12/06 05:18:20;;;;;;;0.30;0.10;;;4.70;1.00;;;;;;5114058;28;20416;-64
2023/12/06 05:20:47;;;;;;;0.30;0.10;;;4.70;1.00;;;;;;5114315;28;20408;-64
2023/12/06 05:23:14;;;;;;;0.30;0.10;;;4.70;1.00;;;;;;5114877;28;20424;-64
2023/12/06 05:25:41;;;;;;;0.30;0.10;;;4.70;1.00;;;;;;5114812;28;20428;-64
2023/12/06 05:28:08;;;;;;;0.30;0.10;;;4.80;1.00;;;;;;5113003;28;20459;-64
2023/12/06 05:30:35;;;;;;;0.30;0.10;;;4.80;1.00;;;;;;5112109;28;20734;-64
2023/12/06 05:33:02;;;;;;;0.40;0.10;;;4.70;1.00;;;;;;5112995;28;20408;-64
2023/12/06 05:35:31;;;;;;;0.35;0.10;;;4.80;1.00;;;;;;5113600;28;20420;-64
2023/12/06 05:37:58;;;;;;;0.30;0.10;;;4.80;1.00;;;;;;5112762;28;20423;-64
2023/12/06 05:40:25;;;;;;;0.30;0.10;;;4.80;1.00;;;;;;5114885;28;20478;-65
2023/12/06 05:42:52;;;;;;;0.40;0.10;;;4.80;1.00;;;;;;5114707;28;20723;-64
2023/12/06 05:45:19;;;;;;;1.20;0.10;;;4.80;1.00;;;;;;5117521;28;20416;-64
2023/12/06 05:47:46;;;;;;;0.30;0.10;;;4.80;1.00;;;;;;5115908;28;20496;-64
2023/12/06 05:50:14;;;;;;;0.30;0.10;;;4.80;1.00;;;;;;5115656;28;20432;-64
2023/12/06 05:52:42;;;;;;;0.30;0.10;;;4.80;1.00;;;;;;5114180;28;20448;-64
2023/12/06 05:55:10;;;;;;;0.40;0.10;;;4.70;1.00;;;;;;5114528;28;20420;-64
2023/12/06 05:57:37;;;;;;;0.30;0.10;;;4.70;1.00;;;;;;5114975;28;20770;-65
2023/12/06 06:00:10;;;;;;;0.30;0.10;;;4.70;1.00;;;;;;5114555;28;20415;-63
2023/12/06 06:02:39;;;;;;;0.30;0.10;;;4.70;1.00;;;;;;5114492;28;20448;-63
2023/12/06 06:05:08;;;;;;;0.30;0.10;;;4.70;1.00;;;;;;5113378;28;20420;-63
2023/12/06 06:07:35;;;;;;;0.30;0.10;;;4.70;1.00;;;;;;5115003;28;20859;-59
2023/12/06 06:10:04;;;;;;;0.30;0.10;;;4.80;1.00;;;;;;5112715;28;20428;-59
2023/12/06 06:12:31;;;;;;;0.40;0.10;;;4.70;1.00;;;;;;5113638;28;20408;-58
2023/12/06 06:14:58;;;;;;;0.30;0.10;;;4.80;1.00;;;;;;5115153;28;20424;-58
2023/12/06 06:17:25;;;;;;;0.30;0.10;;;4.80;1.00;;;;;;5114365;28;20431;-59
2023/12/06 06:19:52;;;;;;;0.60;0.10;;;4.70;1.00;;;;;;5116372;28;20495;-58
2023/12/06 06:22:19;;;;;;;0.30;0.10;;;4.70;4.20;;;;;;5114898;28;20420;-59
2023/12/06 06:24:46;;;;;;;0.30;0.10;;;4.70;1.00;;;;;;5112443;28;20416;-59
2023/12/06 06:27:15;;;;;;;0.30;0.10;;;4.70;1.00;;;;;;5113169;28;20723;-59
2023/12/06 06:29:44;;;;;;;0.40;0.10;;;4.80;1.00;;;;;;5114135;28;20428;-59
2023/12/06 06:32:11;;;;;;;0.30;0.10;;;4.80;1.00;;;;;;5115654;28;20424;-58
2023/12/06 06:34:38;;;;;;;0.40;0.10;;;4.80;1.00;;;;;;5112107;28;20431;-58
2023/12/06 06:37:05;;;;;;;0.30;0.10;;;4.90;1.00;;;;;;5112518;28;20932;-59
2023/12/06 06:39:32;;;;;;;0.40;0.10;;;4.90;1.00;;;;;;5114221;28;20448;-58
2023/12/06 06:41:59;;;;;;;0.30;0.10;;;4.90;1.00;;;;;;5115396;28;20417;-59
2023/12/06 06:44:29;;;;;;;0.40;0.10;;;4.80;1.00;;;;;;5115065;28;20420;-58
2023/12/06 06:46:57;;;;;;;0.30;0.10;;;4.80;1.00;;;;;;5115457;28;20412;-59
2023/12/06 06:49:24;;;;;;;0.30;0.10;;;4.80;1.00;;;;;;5113255;28;20438;-58
2023/12/06 06:51:51;;;;;;;0.30;0.10;;;4.90;1.00;;;;;;5115165;28;20442;-59
2023/12/06 06:54:18;;;;;;;0.30;0.10;;;4.90;1.00;;;;;;5113565;28;20728;-57
2023/12/06 06:56:45;;;;;;;0.30;0.10;;;4.90;1.00;;;;;;5112151;28;20404;-59
2023/12/06 06:59:13;;;;;;;0.40;0.10;;;4.90;1.00;;;;;;5112285;28;20420;-59
2023/12/06 07:01:41;;;;;;;0.30;0.10;;;4.90;1.00;;;;;;5110552;28;20870;-54
2023/12/06 07:04:08;;;;;;;0.35;0.10;;;4.90;1.00;;;;;;5113523;28;20416;-54
2023/12/06 07:06:35;;;;;;;0.70;0.20;;;5.00;1.00;;;;;;5113495;28;20823;-51
2023/12/06 07:09:04;;;;;;;0.70;0.10;;;5.00;1.00;;;;;;5110971;28;20847;-55
2023/12/06 07:11:33;;;;;;;0.50;0.20;;;5.00;1.00;;;;;;5114501;28;20796;-50
2023/12/06 07:14:00;;;;;;;0.30;0.10;;;5.00;1.00;;;;;;5112009;28;20904;-53
2023/12/06 07:16:27;;;;;;;0.40;0.10;;;5.00;1.00;;;;;;5111235;28;20707;-49
2023/12/06 07:18:55;;;;;;;0.40;0.10;;;5.10;1.00;;;;;;5110231;28;20889;-53
2023/12/06 07:21:22;;;;;;;0.40;0.20;;;5.10;1.00;;;;;;5110091;28;20404;-52
2023/12/06 07:23:50;;;;;;;0.30;0.10;;;5.10;1.00;;;;;;5110099;28;20443;-52
2023/12/06 07:26:18;;;;;;;0.40;0.10;;;5.00;1.00;;;;;;5110277;28;20432;-53
2023/12/06 07:28:45;;;;;;;0.90;0.30;;;5.00;1.00;;;;;;5113059;28;20830;-51
2023/12/06 07:31:12;;;;;;;0.50;0.20;;;5.00;1.00;;;;;;5107875;28;20751;-54
2023/12/06 07:33:40;;;;;;;0.40;0.15;;;4.90;1.00;;;;;;5112240;28;20446;-56
2023/12/06 07:36:10;;;;;;;0.50;0.20;;;4.90;1.00;;;;;;5110449;28;20436;-54
2023/12/06 07:38:37;;;;;;;0.40;0.10;;;4.90;1.00;;;;;;5112892;28;20924;-50
2023/12/06 07:41:05;;;;;;;0.30;0.10;;;5.10;1.00;;;;;;5112893;28;20436;-53
2023/12/06 07:43:32;;;;;;;0.70;0.20;;;5.10;1.00;;;;;;5110483;28;20712;-53
2023/12/06 07:45:59;;;;;;;1.10;0.20;;;5.10;1.00;;;;;;5114380;28;20431;-53
2023/12/06 07:48:26;;;;;;;0.60;0.10;;;5.20;1.00;;;;;;5108832;27;20458;-51
2023/12/06 07:50:53;;;;;;;0.40;0.20;;;5.30;1.00;;;;;;5101309;27;20771;-56
2023/12/06 07:53:23;;;;;;;0.30;0.10;;;5.30;1.00;;;;;;5088749;28;20482;-53
2023/12/06 07:55:52;;;;;;;0.40;0.20;;;5.30;1.00;;;;;;5094000;28;20446;-56
2023/12/06 07:58:19;;;;;;;0.37;0.10;;;5.40;1.00;;;;;;5090972;28;20452;-55
2023/12/06 08:00:46;;;;;;;0.47;0.20;;;5.40;1.00;;;;;;5094221;28;20422;-55
2023/12/06 08:03:13;;;;;;;0.45;0.20;;;5.50;1.00;;;;;;5089491;28;20475;-51
2023/12/06 08:05:41;;;;;;;0.40;0.20;;;5.40;1.00;;;;;;5092319;28;20422;-54
2023/12/06 08:08:08;;;;;;;0.45;0.20;;;5.30;1.00;;;;;;5090869;28;20438;-50
2023/12/06 08:10:37;;;;;;;0.40;0.20;;;5.40;1.00;;;;;;5091000;28;20443;-50
2023/12/06 08:13:04;;;;;;;0.60;0.20;;;5.70;1.00;;;;;;5085937;28;20444;-54
2023/12/06 08:15:31;;;;;;;0.60;0.20;;;6.00;1.00;;;;;;5079002;28;20437;-54
2023/12/06 08:17:58;;;;;;;0.40;0.20;;;5.90;1.00;;;;;;5092511;28;20976;-53
2023/12/06 08:20:25;;;;;;;0.40;0.20;;;6.00;1.00;;;;;;5091897;28;20844;-55
2023/12/06 08:22:52;;;;;;;0.60;0.20;;;6.30;1.00;;;;;;5100293;28;20444;-55
2023/12/06 08:25:19;;;;;;;0.40;0.20;;;6.30;99.90;;;;;;5092782;28;20836;-56
2023/12/06 08:27:47;;;;;;;0.50;0.20;;;6.00;1.00;;;;;;5092741;28;20432;-54
2023/12/06 08:30:15;;;;;;;0.40;0.20;;;5.90;1.00;;;;;;5088672;28;20437;-54
2023/12/06 08:32:42;;;;;;;0.70;0.20;;;6.00;1.00;;;;;;5080465;28;20426;-53
2023/12/06 08:35:09;;;;;;;0.50;0.30;;;6.00;1.00;;;;;;5087807;28;20859;-54
2023/12/06 08:37:36;;;;;;;0.70;0.40;;;6.00;1.00;;;;;;5092592;28;20496;-54
2023/12/06 08:40:06;;;;;;;0.70;0.50;;;5.90;1.00;;;;;;5091786;28;20526;-53
2023/12/06 08:42:34;;;;;;;0.60;0.40;;;5.80;1.00;;;;;;5090483;28;20701;-54
2023/12/06 08:45:02;;;;;;;0.80;0.47;;;5.70;1.00;;;;;;5089505;28;20442;-55
2023/12/06 08:47:29;;;;;;;1.02;0.60;;;5.70;1.00;;;;;;5088741;28;20440;-53
2023/12/06 08:49:56;;;;;;;1.60;0.60;;;5.80;1.00;;;;;;5091612;28;20438;-55
2023/12/06 08:52:23;;;;;;;1.33;0.70;;;6.00;99.90;;;;;;5118170;27;20502;-50
2023/12/06 08:54:50;;;;;;;1.30;0.63;;;6.10;99.90;;;;;;5114545;27;20698;-54
2023/12/06 08:57:18;;;;;;;1.90;0.80;;;6.10;99.90;;;;;;5108828;28;20442;-52
2023/12/06 08:59:45;;;;;;;1.10;0.80;;;6.10;18.50;;;;;;5111335;28;20435;-55
2023/12/06 09:02:13;;;;;;;1.30;0.70;;;6.20;99.90;;;;;;5108669;28;20432;-51
2023/12/06 09:04:40;;;;;;;2.40;0.90;;;6.10;99.90;;;;;;5110521;28;20439;-53
2023/12/06 09:07:07;;;;;;;1.30;0.90;;;6.00;11.90;;;;;;5110346;28;20477;-54
2023/12/06 09:09:34;;;;;;;1.70;0.90;;;5.90;35.50;;;;;;5111166;28;20428;-53
2023/12/06 09:12:01;;;;;;;2.10;0.90;;;6.10;99.90;;;;;;5112241;28;20795;-53
2023/12/06 09:14:28;;;;;;;2.25;1.00;;;6.00;99.90;;;;;;5110819;28;20423;-54
2023/12/06 09:16:55;;;;;;;1.50;1.00;;;6.00;1.00;;;;;;5111558;28;20436;-54
2023/12/06 09:19:25;;;;;;;2.03;1.10;;;5.80;1.00;;;;;;5097977;28;20437;-54
2023/12/06 09:21:52;;;;;;;1.80;1.00;;;5.70;1.00;;;;;;5114336;28;20420;-54
2023/12/06 09:24:19;;;;;;;1.98;0.95;;;5.50;1.00;;;;;;5115240;28;20416;-53
2023/12/06 09:26:46;;;;;;;2.33;1.00;;;5.50;99.90;;;;;;5115174;28;20419;-55
2023/12/06 09:29:14;;;;;;;2.40;1.00;;;5.60;99.90;;;;;;5114076;27;20456;-52
2023/12/06 09:31:42;;;;;;;2.20;1.00;;;5.50;99.90;;;;;;5113109;28;20432;-55
2023/12/06 09:34:09;;;;;;;3.00;1.00;;;5.50;99.90;;;;;;5111414;27;20721;-52
2023/12/06 09:36:39;;;;;;;2.22;1.00;;;5.40;99.90;;;;;;5109751;27;20883;-54
2023/12/06 09:39:06;;;;;;;2.70;1.10;;;5.50;99.90;;;;;;5113386;28;20512;-53
2023/12/06 09:41:34;;;;;;;2.13;1.00;;;5.50;99.90;;;;;;5123989;27;20441;-53
2023/12/06 09:44:01;;;;;;;2.08;1.10;;;5.30;99.90;;;;;;5135238;27;20462;-53
2023/12/06 09:46:29;;;;;;;2.20;1.20;;;5.30;99.90;;;;;;5120269;27;20442;-55
2023/12/06 09:48:56;;;;;;;2.00;1.20;;;5.30;99.90;;;;;;5114883;27;20423;-56
2023/12/06 09:51:24;;;;;;;2.60;1.10;;;5.30;1.00;;;;;;5131557;27;20582;-59
2023/12/06 09:53:52;;;;;;;3.20;1.10;;;5.30;1.00;;;;;;5119495;27;20430;-59
2023/12/06 09:56:20;;;;;;;2.15;1.00;;;5.20;99.90;;;;;;5097177;28;20433;-58
2023/12/06 09:58:47;;;;;;;2.10;1.10;;;5.30;99.90;;;;;;5094014;28;20426;-58
2023/12/06 10:01:14;;;;;;;2.70;1.00;;;5.30;1.00;;;;;;5108299;27;20428;-56
2023/12/06 10:03:41;;;;;;;2.67;1.10;;;5.30;99.90;;;;;;5110309;27;20439;-55
2023/12/06 10:06:09;;;;;;;2.10;1.15;;;5.70;1.00;;;;;;5112588;28;20439;-56
2023/12/06 10:08:37;;;;;;;2.90;1.20;;;5.90;1.00;;;;;;5112179;28;20443;-56
2023/12/06 10:11:07;;;;;;;2.00;1.10;;;5.90;1.00;;;;;;5113223;28;20905;-55
2023/12/06 10:13:35;;;;;;;2.40;1.15;;;5.70;99.90;;;;;;5112306;28;20440;-58
2023/12/06 10:16:02;;;;;;;3.50;1.20;;;5.40;1.00;;;;;;5111708;28;20461;-58
2023/12/06 10:18:30;;;;;;;2.15;1.13;;;5.70;1.00;;;;;;5109123;28;20432;-55
2023/12/06 10:20:57;;;;;;;2.40;1.10;;;5.80;99.90;;;;;;5110089;27;20471;-61
2023/12/06 10:23:24;;;;;;;2.10;1.10;;;5.60;1.00;;;;;;5114417;28;20815;-59
2023/12/06 10:25:50;;;;;;;2.80;1.42;;;5.60;95.60;;;;;;5112148;27;20436;-60
2023/12/06 10:28:20;;;;;;;2.33;1.25;;;5.70;99.90;;;;;;5113008;28;20431;-59
2023/12/06 10:30:47;;;;;;;3.40;1.50;;;5.70;1.00;;;;;;5110343;28;20842;-60
2023/12/06 10:33:17;;;;;;;2.20;1.10;;;5.60;1.00;;;;;;5111820;28;20431;-59
2023/12/06 10:35:44;;;;;;;1.77;1.10;;;5.70;1.00;;;;;;5112990;28;20436;-59
2023/12/06 10:38:14;;;;;;;1.63;1.00;;;5.70;99.90;;;;;;5111762;27;20505;-60
2023/12/06 10:40:42;;;;;;;2.05;1.17;;;5.80;99.90;;;;;;5114532;28;20447;-60
2023/12/06 10:43:10;;;;;;;1.87;1.00;;;5.80;1.00;;;;;;5114319;28;20484;-60
2023/12/06 10:45:40;;;;;;;1.70;1.00;;;5.70;99.90;;;;;;5111638;28;20866;-60
2023/12/06 10:48:09;;;;;;;1.60;1.00;;;5.70;1.00;;;;;;5112168;28;20420;-60
2023/12/06 10:50:37;;;;;;;2.20;1.10;;;5.60;99.90;;;;;;5112443;28;20440;-60
2023/12/06 10:53:05;;;;;;;2.20;1.00;;;5.40;1.00;;;;;;5108593;28;20752;-59
2023/12/06 10:55:34;;;;;;;1.60;1.00;;;5.50;31.00;;;;;;5111030;28;20980;-59
2023/12/06 10:58:02;;;;;;;2.50;1.00;;;5.40;99.90;;;;;;5097675;28;20933;-58
2023/12/06 11:00:29;;;;;;;2.28;0.98;;;5.40;1.00;;;;;;5113554;28;20910;-58
2023/12/06 11:02:58;;;;;;;1.70;1.00;;;5.50;1.00;;;;;;5112104;28;20739;-57
2023/12/06 11:05:28;;;;;;;2.58;1.02;;;5.60;1.00;;;;;;5113804;28;20408;-58
2023/12/06 11:08:13;;;;;;;1.77;1.10;;;5.70;1.00;;;;;;5111862;28;20424;-58
2023/12/06 11:10:52;;;;;;;2.17;1.00;;;5.80;99.90;;;;;;5111034;28;20505;-56
2023/12/06 11:13:42;;;;;;;1.77;0.90;;;5.60;1.00;;;;;;5111219;28;20530;-55
2023/12/06 11:16:26;;;;;;;2.50;1.10;;;5.40;1.00;;;;;;5113614;28;20432;-57
2023/12/06 11:18:55;;;;;;;1.50;0.95;;;5.50;1.00;;;;;;5112013;28;20867;-57
2023/12/06 11:21:24;;;;;;;2.10;1.00;;;5.60;99.90;;;;;;5112225;28;20575;-56
2023/12/06 11:23:52;;;;;;;2.70;1.00;;;5.60;1.00;;;;;;5112610;28;20776;-57
2023/12/06 11:26:19;;;;;;;1.90;0.90;;;5.50;99.90;;;;;;5115138;28;20424;-57
2023/12/06 11:28:47;;;;;;;2.20;0.90;;;5.50;1.00;;;;;;5111109;28;20428;-57
2023/12/06 11:31:16;;;;;;;1.38;0.88;;;5.60;1.00;;;;;;5111002;28;20650;-57
2023/12/06 11:33:55;;;;;;;2.70;1.00;;;5.40;1.00;;;;;;5111408;28;20432;-58
2023/12/06 11:36:24;;;;;;;2.40;0.90;;;5.20;99.90;;;;;;5112456;28;20424;-58
2023/12/06 11:38:52;;;;;;;1.80;1.00;;;5.30;1.00;;;;;;5110543;28;20871;-55
2023/12/06 11:41:19;;;;;;;1.55;0.90;;;5.30;1.00;;;;;;5112455;28;20635;-56
2023/12/06 11:43:49;;;;;;;2.40;0.90;;;5.20;1.00;;;;;;5122080;27;20423;-57
2023/12/06 11:46:17;;;;;;;1.95;1.00;;;5.20;1.00;;;;;;5109921;28;20866;-55
2023/12/06 11:48:46;;;;;;;1.67;1.05;;;5.20;3.80;;;;;;5112938;28;20424;-57
2023/12/06 11:51:21;;;;;;;2.10;0.90;;;5.20;1.00;;;;;;5113086;28;20428;-58
2023/12/06 11:53:48;;;;;;;1.80;1.00;;;5.30;99.90;;;;;;5113965;28;20455;-58
2023/12/06 11:56:22;;;;;;;2.00;0.90;;;5.50;1.00;;;;;;5115370;28;20456;-57
2023/12/06 11:58:50;;;;;;;1.70;1.00;;;5.50;1.00;;;;;;5114227;28;20462;-58
2023/12/06 12:01:18;;;;;;;1.80;1.00;;;5.50;1.00;;;;;;5112785;28;20485;-57
2023/12/06 12:03:47;;;;;;;2.00;0.90;;;5.50;1.00;;;;;;5112001;28;20424;-54
2023/12/06 12:06:15;;;;;;;2.20;0.90;;;5.50;1.00;;;;;;5110070;28;20421;-56
2023/12/06 12:08:44;;;;;;;1.63;1.00;;;5.50;1.00;;;;;;5108717;28;20488;-56
2023/12/06 12:11:12;;;;;;;2.00;1.20;;;5.50;6.00;;;;;;5111891;28;20439;-55
2023/12/06 12:13:42;;;;;;;1.60;0.93;;;5.50;1.00;;;;;;5112075;28;20784;-56
2023/12/06 12:16:12;;;;;;;2.13;1.10;;;5.50;1.00;;;;;;5110129;28;20493;-57
2023/12/06 12:18:40;;;;;;;1.77;1.00;;;5.50;99.90;;;;;;5108628;28;20434;-56
2023/12/06 12:21:10;;;;;;;2.60;1.00;;;5.50;1.00;;;;;;5113209;28;20904;-57
2023/12/06 12:23:37;;;;;;;1.60;1.10;;;5.60;1.00;;;;;;5112006;28;20809;-55
2023/12/06 12:26:13;;;;;;;2.10;1.00;;;5.50;1.00;;;;;;5112449;28;20420;-55
2023/12/06 12:28:40;;;;;;;1.50;1.00;;;5.40;99.90;;;;;;5111481;28;20429;-54
2023/12/06 12:31:11;;;;;;;2.58;0.98;;;5.30;1.00;;;;;;5111051;28;20482;-56
2023/12/06 12:33:40;;;;;;;2.17;1.00;;;5.20;1.00;;;;;;5111810;28;20455;-56
2023/12/06 12:36:08;;;;;;;2.15;1.00;;;5.20;99.90;;;;;;5111268;28;20432;-56
2023/12/06 12:38:36;;;;;;;4.35;1.00;;;5.40;99.90;;;;;;5111693;28;20428;-57
2023/12/06 12:41:08;;;;;;;2.00;1.00;;;5.40;42.40;;;;;;5111800;28;20424;-54
2023/12/06 12:43:35;;;;;;;1.80;1.00;;;5.60;1.00;;;;;;5108944;28;20435;-55
2023/12/06 12:46:03;;;;;;;1.92;1.00;;;5.70;1.00;;;;;;5109179;28;20864;-56
2023/12/06 12:48:30;;;;;;;1.70;1.00;;;5.70;1.00;;;;;;5108141;28;20412;-56
2023/12/06 12:51:10;;;;;;;1.50;0.90;;;5.80;1.00;;;;;;5117234;28;20445;-58
2023/12/06 12:53:37;;;;;;;1.50;0.90;;;5.80;1.00;;;;;;5130425;27;20423;-57
2023/12/06 12:56:09;;;;;;;1.70;1.00;;;5.80;99.90;;;;;;5129467;27;20492;-55
2023/12/06 12:58:37;;;;;;;1.80;1.00;;;5.70;1.00;;;;;;5112963;28;20432;-57
2023/12/06 13:01:05;;;;;;;1.70;1.00;;;5.70;99.90;;;;;;5111663;28;20543;-56
2023/12/06 13:03:32;;;;;;;1.77;1.00;;;5.70;1.00;;;;;;5114025;28;21200;-57
2023/12/06 13:06:00;;;;;;;1.35;0.90;;;5.60;1.00;;;;;;5112985;28;20469;-58